sensor_id;sensor_type;location;lat;lon;timestamp;P1;durP1;ratioP1;P2;durP2;ratioP2
78778;SDS011;68121;52.404;5.318;2023-03-05T00:01:41;4.80;;;1.00;;
78778;SDS011;68121;52.404;5.318;2023-03-05T00:04:09;4.68;;;1.23;;
78778;SDS011;68121;52.404;5.318;2023-03-05T00:06:38;4.60;;;0.90;;
78778;SDS011;68121;52.404;5.318;2023-03-05T00:09:04;6.43;;;1.02;;
78778;SDS011;68121;52.404;5.318;2023-03-05T00:11:30;9.10;;;1.13;;
78778;SDS011;68121;52.404;5.318;2023-03-05T00:13:58;4.28;;;1.00;;
78778;SDS011;68121;52.404;5.318;2023-03-05T00:16:27;7.10;;;1.30;;
78778;SDS011;68121;52.404;5.318;2023-03-05T00:18:54;5.90;;;1.30;;
78778;SDS011;68121;52.404;5.318;2023-03-05T00:21:42;4.40;;;0.73;;
78778;SDS011;68121;52.404;5.318;2023-03-05T00:24:12;5.30;;;0.95;;
78778;SDS011;68121;52.404;5.318;2023-03-05T00:26:41;4.53;;;0.98;;
78778;SDS011;68121;52.404;5.318;2023-03-05T00:29:08;5.20;;;1.38;;
78778;SDS011;68121;52.404;5.318;2023-03-05T00:31:36;5.53;;;1.17;;
78778;SDS011;68121;52.404;5.318;2023-03-05T00:34:06;5.15;;;1.23;;
78778;SDS011;68121;52.404;5.318;2023-03-05T00:36:37;2.95;;;1.13;;
78778;SDS011;68121;52.404;5.318;2023-03-05T00:39:08;4.45;;;1.10;;
78778;SDS011;68121;52.404;5.318;2023-03-05T00:41:35;3.30;;;0.68;;
78778;SDS011;68121;52.404;5.318;2023-03-05T00:44:01;3.40;;;0.90;;
78778;SDS011;68121;52.404;5.318;2023-03-05T00:46:27;3.90;;;1.23;;
78778;SDS011;68121;52.404;5.318;2023-03-05T00:48:54;5.95;;;0.90;;
78778;SDS011;68121;52.404;5.318;2023-03-05T00:51:20;3.38;;;1.00;;
78778;SDS011;68121;52.404;5.318;2023-03-05T00:53:47;7.57;;;1.38;;
78778;SDS011;68121;52.404;5.318;2023-03-05T00:56:13;8.45;;;1.27;;
78778;SDS011;68121;52.404;5.318;2023-03-05T00:58:39;6.78;;;1.38;;
78778;SDS011;68121;52.404;5.318;2023-03-05T01:01:05;4.80;;;1.00;;
78778;SDS011;68121;52.404;5.318;2023-03-05T01:03:32;8.43;;;1.20;;
78778;SDS011;68121;52.404;5.318;2023-03-05T01:06:00;7.15;;;1.05;;
78778;SDS011;68121;52.404;5.318;2023-03-05T01:08:28;2.10;;;0.63;;
78778;SDS011;68121;52.404;5.318;2023-03-05T01:10:54;8.07;;;0.82;;
78778;SDS011;68121;52.404;5.318;2023-03-05T01:13:20;3.25;;;0.93;;
78778;SDS011;68121;52.404;5.318;2023-03-05T01:15:47;8.07;;;1.02;;
78778;SDS011;68121;52.404;5.318;2023-03-05T01:18:15;5.25;;;1.00;;
78778;SDS011;68121;52.404;5.318;2023-03-05T01:20:42;3.25;;;1.02;;
78778;SDS011;68121;52.404;5.318;2023-03-05T01:23:08;4.68;;;0.80;;
78778;SDS011;68121;52.404;5.318;2023-03-05T01:25:34;3.22;;;0.75;;
78778;SDS011;68121;52.404;5.318;2023-03-05T01:28:01;3.47;;;0.85;;
78778;SDS011;68121;52.404;5.318;2023-03-05T01:30:27;3.30;;;0.80;;
78778;SDS011;68121;52.404;5.318;2023-03-05T01:32:53;7.45;;;1.15;;
78778;SDS011;68121;52.404;5.318;2023-03-05T01:35:20;3.97;;;1.05;;
78778;SDS011;68121;52.404;5.318;2023-03-05T01:37:48;4.90;;;0.95;;
78778;SDS011;68121;52.404;5.318;2023-03-05T01:40:17;4.03;;;0.88;;
78778;SDS011;68121;52.404;5.318;2023-03-05T01:42:46;3.60;;;1.00;;
78778;SDS011;68121;52.404;5.318;2023-03-05T01:45:14;8.63;;;1.40;;
78778;SDS011;68121;52.404;5.318;2023-03-05T01:47:42;5.80;;;0.90;;
78778;SDS011;68121;52.404;5.318;2023-03-05T01:50:10;5.30;;;0.90;;
78778;SDS011;68121;52.404;5.318;2023-03-05T01:52:41;5.55;;;0.80;;
78778;SDS011;68121;52.404;5.318;2023-03-05T01:55:13;4.95;;;0.80;;
78778;SDS011;68121;52.404;5.318;2023-03-05T01:57:43;2.60;;;0.70;;
78778;SDS011;68121;52.404;5.318;2023-03-05T02:00:28;6.97;;;1.73;;
78778;SDS011;68121;52.404;5.318;2023-03-05T02:03:00;8.18;;;1.00;;
78778;SDS011;68121;52.404;5.318;2023-03-05T02:05:30;3.38;;;0.82;;
78778;SDS011;68121;52.404;5.318;2023-03-05T02:07:59;3.97;;;0.70;;
78778;SDS011;68121;52.404;5.318;2023-03-05T02:10:31;1.55;;;0.63;;
78778;SDS011;68121;52.404;5.318;2023-03-05T02:13:01;3.95;;;0.60;;
78778;SDS011;68121;52.404;5.318;2023-03-05T02:15:31;5.07;;;0.68;;
78778;SDS011;68121;52.404;5.318;2023-03-05T02:17:58;1.77;;;0.50;;
78778;SDS011;68121;52.404;5.318;2023-03-05T02:20:28;5.03;;;0.88;;
78778;SDS011;68121;52.404;5.318;2023-03-05T02:23:07;3.78;;;0.80;;
78778;SDS011;68121;52.404;5.318;2023-03-05T02:25:33;2.60;;;0.80;;
78778;SDS011;68121;52.404;5.318;2023-03-05T02:28:00;4.15;;;0.47;;
78778;SDS011;68121;52.404;5.318;2023-03-05T02:30:31;3.75;;;0.60;;
78778;SDS011;68121;52.404;5.318;2023-03-05T02:32:57;2.42;;;0.60;;
78778;SDS011;68121;52.404;5.318;2023-03-05T02:35:23;4.18;;;0.80;;
78778;SDS011;68121;52.404;5.318;2023-03-05T02:37:50;3.28;;;0.70;;
78778;SDS011;68121;52.404;5.318;2023-03-05T02:40:16;7.30;;;0.90;;
78778;SDS011;68121;52.404;5.318;2023-03-05T02:42:42;1.05;;;0.63;;
78778;SDS011;68121;52.404;5.318;2023-03-05T02:45:09;6.30;;;1.00;;
78778;SDS011;68121;52.404;5.318;2023-03-05T02:47:35;2.55;;;0.50;;
78778;SDS011;68121;52.404;5.318;2023-03-05T02:50:02;3.88;;;0.80;;
78778;SDS011;68121;52.404;5.318;2023-03-05T02:52:30;2.67;;;0.60;;
78778;SDS011;68121;52.404;5.318;2023-03-05T02:54:56;5.90;;;1.00;;
78778;SDS011;68121;52.404;5.318;2023-03-05T02:57:22;4.10;;;0.85;;
78778;SDS011;68121;52.404;5.318;2023-03-05T02:59:49;6.68;;;0.77;;
78778;SDS011;68121;52.404;5.318;2023-03-05T03:02:17;5.55;;;1.00;;
78778;SDS011;68121;52.404;5.318;2023-03-05T03:04:43;8.10;;;1.55;;
78778;SDS011;68121;52.404;5.318;2023-03-05T03:07:10;3.53;;;0.77;;
78778;SDS011;68121;52.404;5.318;2023-03-05T03:09:37;4.43;;;1.00;;
78778;SDS011;68121;52.404;5.318;2023-03-05T03:12:05;10.05;;;1.10;;
78778;SDS011;68121;52.404;5.318;2023-03-05T03:14:32;4.25;;;0.75;;
78778;SDS011;68121;52.404;5.318;2023-03-05T03:17:07;4.80;;;1.17;;
78778;SDS011;68121;52.404;5.318;2023-03-05T03:19:36;4.30;;;0.80;;
78778;SDS011;68121;52.404;5.318;2023-03-05T03:22:03;3.78;;;0.60;;
78778;SDS011;68121;52.404;5.318;2023-03-05T03:24:31;4.70;;;1.08;;
78778;SDS011;68121;52.404;5.318;2023-03-05T03:26:58;5.85;;;1.33;;
78778;SDS011;68121;52.404;5.318;2023-03-05T03:29:24;4.13;;;0.52;;
78778;SDS011;68121;52.404;5.318;2023-03-05T03:31:50;5.68;;;0.73;;
78778;SDS011;68121;52.404;5.318;2023-03-05T03:34:16;7.35;;;0.50;;
78778;SDS011;68121;52.404;5.318;2023-03-05T03:36:43;2.20;;;0.47;;
78778;SDS011;68121;52.404;5.318;2023-03-05T03:39:10;5.57;;;1.00;;
78778;SDS011;68121;52.404;5.318;2023-03-05T03:41:39;4.45;;;0.88;;
78778;SDS011;68121;52.404;5.318;2023-03-05T03:44:06;2.95;;;0.70;;
78778;SDS011;68121;52.404;5.318;2023-03-05T03:46:33;3.00;;;0.70;;
78778;SDS011;68121;52.404;5.318;2023-03-05T03:49:00;4.18;;;0.85;;
78778;SDS011;68121;52.404;5.318;2023-03-05T03:51:27;5.40;;;0.75;;
78778;SDS011;68121;52.404;5.318;2023-03-05T03:53:53;1.80;;;0.73;;
78778;SDS011;68121;52.404;5.318;2023-03-05T03:56:20;4.82;;;0.68;;
78778;SDS011;68121;52.404;5.318;2023-03-05T03:58:48;1.35;;;0.45;;
78778;SDS011;68121;52.404;5.318;2023-03-05T04:01:15;3.67;;;0.73;;
78778;SDS011;68121;52.404;5.318;2023-03-05T04:03:42;1.98;;;0.43;;
78778;SDS011;68121;52.404;5.318;2023-03-05T04:06:08;4.25;;;0.80;;
78778;SDS011;68121;52.404;5.318;2023-03-05T04:08:34;0.77;;;0.52;;
78778;SDS011;68121;52.404;5.318;2023-03-05T04:11:01;1.95;;;0.50;;
78778;SDS011;68121;52.404;5.318;2023-03-05T04:13:27;2.40;;;0.82;;
78778;SDS011;68121;52.404;5.318;2023-03-05T04:15:53;3.70;;;0.75;;
78778;SDS011;68121;52.404;5.318;2023-03-05T04:18:20;6.10;;;1.48;;
78778;SDS011;68121;52.404;5.318;2023-03-05T04:20:46;4.78;;;1.35;;
78778;SDS011;68121;52.404;5.318;2023-03-05T04:23:12;3.45;;;0.70;;
78778;SDS011;68121;52.404;5.318;2023-03-05T04:25:38;1.40;;;0.35;;
78778;SDS011;68121;52.404;5.318;2023-03-05T04:28:04;1.38;;;0.40;;
78778;SDS011;68121;52.404;5.318;2023-03-05T04:30:30;2.28;;;0.40;;
78778;SDS011;68121;52.404;5.318;2023-03-05T04:32:57;0.30;;;0.30;;
78778;SDS011;68121;52.404;5.318;2023-03-05T04:35:23;1.90;;;0.57;;
78778;SDS011;68121;52.404;5.318;2023-03-05T04:37:49;2.47;;;0.60;;
78778;SDS011;68121;52.404;5.318;2023-03-05T04:40:16;1.27;;;0.40;;
78778;SDS011;68121;52.404;5.318;2023-03-05T04:42:42;2.40;;;0.50;;
78778;SDS011;68121;52.404;5.318;2023-03-05T04:45:08;1.67;;;0.75;;
78778;SDS011;68121;52.404;5.318;2023-03-05T04:47:35;0.40;;;0.30;;
78778;SDS011;68121;52.404;5.318;2023-03-05T04:50:02;2.78;;;1.10;;
78778;SDS011;68121;52.404;5.318;2023-03-05T04:52:29;2.10;;;0.50;;
78778;SDS011;68121;52.404;5.318;2023-03-05T04:54:55;1.00;;;0.43;;
78778;SDS011;68121;52.404;5.318;2023-03-05T04:57:21;3.03;;;0.40;;
78778;SDS011;68121;52.404;5.318;2023-03-05T04:59:47;4.40;;;0.60;;
78778;SDS011;68121;52.404;5.318;2023-03-05T05:02:13;0.40;;;0.20;;
78778;SDS011;68121;52.404;5.318;2023-03-05T05:04:39;1.52;;;0.50;;
78778;SDS011;68121;52.404;5.318;2023-03-05T05:07:09;2.05;;;0.65;;
78778;SDS011;68121;52.404;5.318;2023-03-05T05:09:37;1.63;;;0.50;;
78778;SDS011;68121;52.404;5.318;2023-03-05T05:12:04;0.43;;;0.43;;
78778;SDS011;68121;52.404;5.318;2023-03-05T05:14:32;1.35;;;0.40;;
78778;SDS011;68121;52.404;5.318;2023-03-05T05:16:58;2.15;;;0.40;;
78778;SDS011;68121;52.404;5.318;2023-03-05T05:19:24;2.78;;;0.65;;
78778;SDS011;68121;52.404;5.318;2023-03-05T05:21:50;2.10;;;0.40;;
78778;SDS011;68121;52.404;5.318;2023-03-05T05:24:16;4.38;;;0.60;;
78778;SDS011;68121;52.404;5.318;2023-03-05T05:26:42;0.85;;;0.35;;
78778;SDS011;68121;52.404;5.318;2023-03-05T05:29:08;2.65;;;0.70;;
78778;SDS011;68121;52.404;5.318;2023-03-05T05:31:34;3.65;;;0.52;;
78778;SDS011;68121;52.404;5.318;2023-03-05T05:34:01;2.75;;;0.65;;
78778;SDS011;68121;52.404;5.318;2023-03-05T05:36:27;3.13;;;0.50;;
78778;SDS011;68121;52.404;5.318;2023-03-05T05:38:53;0.88;;;0.40;;
78778;SDS011;68121;52.404;5.318;2023-03-05T05:41:19;4.25;;;0.50;;
78778;SDS011;68121;52.404;5.318;2023-03-05T05:43:45;1.58;;;0.60;;
78778;SDS011;68121;52.404;5.318;2023-03-05T05:46:13;4.35;;;0.70;;
78778;SDS011;68121;52.404;5.318;2023-03-05T05:48:41;2.80;;;0.47;;
78778;SDS011;68121;52.404;5.318;2023-03-05T05:51:09;1.67;;;0.70;;
78778;SDS011;68121;52.404;5.318;2023-03-05T05:53:36;1.85;;;0.50;;
78778;SDS011;68121;52.404;5.318;2023-03-05T05:56:03;1.98;;;0.40;;
78778;SDS011;68121;52.404;5.318;2023-03-05T05:58:30;1.98;;;0.40;;
78778;SDS011;68121;52.404;5.318;2023-03-05T06:00:56;0.52;;;0.30;;
78778;SDS011;68121;52.404;5.318;2023-03-05T06:03:22;1.95;;;0.35;;
78778;SDS011;68121;52.404;5.318;2023-03-05T06:05:48;2.60;;;0.52;;
78778;SDS011;68121;52.404;5.318;2023-03-05T06:08:16;1.65;;;0.47;;
78778;SDS011;68121;52.404;5.318;2023-03-05T06:10:43;2.58;;;0.30;;
78778;SDS011;68121;52.404;5.318;2023-03-05T06:13:09;1.33;;;0.30;;
78778;SDS011;68121;52.404;5.318;2023-03-05T06:15:35;2.15;;;0.40;;
78778;SDS011;68121;52.404;5.318;2023-03-05T06:18:01;0.85;;;0.30;;
78778;SDS011;68121;52.404;5.318;2023-03-05T06:20:27;1.42;;;0.40;;
78778;SDS011;68121;52.404;5.318;2023-03-05T06:22:54;2.75;;;0.40;;
78778;SDS011;68121;52.404;5.318;2023-03-05T06:25:20;1.85;;;0.38;;
78778;SDS011;68121;52.404;5.318;2023-03-05T06:27:46;1.65;;;0.35;;
78778;SDS011;68121;52.404;5.318;2023-03-05T06:30:12;2.05;;;0.43;;
78778;SDS011;68121;52.404;5.318;2023-03-05T06:32:38;1.45;;;0.40;;
78778;SDS011;68121;52.404;5.318;2023-03-05T06:35:04;1.73;;;0.30;;
78778;SDS011;68121;52.404;5.318;2023-03-05T06:37:30;2.80;;;0.50;;
78778;SDS011;68121;52.404;5.318;2023-03-05T06:39:58;4.15;;;0.90;;
78778;SDS011;68121;52.404;5.318;2023-03-05T06:42:24;3.83;;;0.65;;
78778;SDS011;68121;52.404;5.318;2023-03-05T06:44:50;5.15;;;0.73;;
78778;SDS011;68121;52.404;5.318;2023-03-05T06:47:16;3.70;;;0.70;;
78778;SDS011;68121;52.404;5.318;2023-03-05T06:49:42;4.82;;;0.88;;
78778;SDS011;68121;52.404;5.318;2023-03-05T06:52:08;0.60;;;0.20;;
78778;SDS011;68121;52.404;5.318;2023-03-05T06:54:35;1.48;;;0.25;;
78778;SDS011;68121;52.404;5.318;2023-03-05T06:57:01;0.20;;;0.08;;
78778;SDS011;68121;52.404;5.318;2023-03-05T06:59:27;0.13;;;0.05;;
78778;SDS011;68121;52.404;5.318;2023-03-05T07:01:53;1.60;;;0.20;;
78778;SDS011;68121;52.404;5.318;2023-03-05T07:04:19;0.60;;;0.10;;
78778;SDS011;68121;52.404;5.318;2023-03-05T07:06:45;0.08;;;0.05;;
78778;SDS011;68121;52.404;5.318;2023-03-05T07:09:14;0.20;;;0.05;;
78778;SDS011;68121;52.404;5.318;2023-03-05T07:11:41;1.38;;;0.20;;
78778;SDS011;68121;52.404;5.318;2023-03-05T07:14:07;0.93;;;0.00;;
78778;SDS011;68121;52.404;5.318;2023-03-05T07:16:33;0.40;;;0.10;;
78778;SDS011;68121;52.404;5.318;2023-03-05T07:19:01;0.38;;;0.20;;
78778;SDS011;68121;52.404;5.318;2023-03-05T07:21:30;0.95;;;0.17;;
78778;SDS011;68121;52.404;5.318;2023-03-05T07:23:58;2.28;;;0.30;;
78778;SDS011;68121;52.404;5.318;2023-03-05T07:26:25;0.68;;;0.25;;
78778;SDS011;68121;52.404;5.318;2023-03-05T07:28:52;2.75;;;0.20;;
78778;SDS011;68121;52.404;5.318;2023-03-05T07:31:19;1.45;;;0.47;;
78778;SDS011;68121;52.404;5.318;2023-03-05T07:33:47;0.73;;;0.32;;
78778;SDS011;68121;52.404;5.318;2023-03-05T07:36:14;1.10;;;0.30;;
78778;SDS011;68121;52.404;5.318;2023-03-05T07:38:41;0.47;;;0.20;;
78778;SDS011;68121;52.404;5.318;2023-03-05T07:41:11;2.58;;;0.35;;
78778;SDS011;68121;52.404;5.318;2023-03-05T07:43:39;2.67;;;0.30;;
78778;SDS011;68121;52.404;5.318;2023-03-05T07:46:06;1.77;;;0.50;;
78778;SDS011;68121;52.404;5.318;2023-03-05T07:48:33;1.23;;;0.40;;
78778;SDS011;68121;52.404;5.318;2023-03-05T07:51:03;4.82;;;0.55;;
78778;SDS011;68121;52.404;5.318;2023-03-05T07:53:31;1.45;;;0.47;;
78778;SDS011;68121;52.404;5.318;2023-03-05T07:55:57;1.30;;;0.30;;
78778;SDS011;68121;52.404;5.318;2023-03-05T07:58:23;2.33;;;0.30;;
78778;SDS011;68121;52.404;5.318;2023-03-05T08:00:49;1.30;;;0.35;;
78778;SDS011;68121;52.404;5.318;2023-03-05T08:03:15;0.32;;;0.25;;
78778;SDS011;68121;52.404;5.318;2023-03-05T08:05:42;0.40;;;0.28;;
78778;SDS011;68121;52.404;5.318;2023-03-05T08:08:08;1.40;;;0.47;;
78778;SDS011;68121;52.404;5.318;2023-03-05T08:10:35;2.28;;;0.30;;
78778;SDS011;68121;52.404;5.318;2023-03-05T08:13:02;1.27;;;0.30;;
78778;SDS011;68121;52.404;5.318;2023-03-05T08:15:29;1.60;;;0.40;;
78778;SDS011;68121;52.404;5.318;2023-03-05T08:17:56;0.60;;;0.30;;
78778;SDS011;68121;52.404;5.318;2023-03-05T08:20:22;3.30;;;0.47;;
78778;SDS011;68121;52.404;5.318;2023-03-05T08:22:48;2.88;;;0.75;;
78778;SDS011;68121;52.404;5.318;2023-03-05T08:25:14;2.78;;;0.47;;
78778;SDS011;68121;52.404;5.318;2023-03-05T08:27:41;3.05;;;0.50;;
78778;SDS011;68121;52.404;5.318;2023-03-05T08:30:10;1.02;;;0.43;;
78778;SDS011;68121;52.404;5.318;2023-03-05T08:32:38;1.85;;;0.40;;
78778;SDS011;68121;52.404;5.318;2023-03-05T08:35:04;2.42;;;0.50;;
78778;SDS011;68121;52.404;5.318;2023-03-05T08:37:31;3.95;;;0.50;;
78778;SDS011;68121;52.404;5.318;2023-03-05T08:39:58;1.58;;;0.43;;
78778;SDS011;68121;52.404;5.318;2023-03-05T08:42:24;2.53;;;0.57;;
78778;SDS011;68121;52.404;5.318;2023-03-05T08:44:50;3.22;;;0.80;;
78778;SDS011;68121;52.404;5.318;2023-03-05T08:47:16;2.08;;;0.47;;
78778;SDS011;68121;52.404;5.318;2023-03-05T08:49:43;1.10;;;0.40;;
78778;SDS011;68121;52.404;5.318;2023-03-05T08:52:09;1.05;;;0.40;;
78778;SDS011;68121;52.404;5.318;2023-03-05T08:54:35;4.25;;;0.52;;
78778;SDS011;68121;52.404;5.318;2023-03-05T08:57:02;2.78;;;0.30;;
78778;SDS011;68121;52.404;5.318;2023-03-05T08:59:28;0.82;;;0.52;;
78778;SDS011;68121;52.404;5.318;2023-03-05T09:01:58;2.97;;;0.45;;
78778;SDS011;68121;52.404;5.318;2023-03-05T09:04:25;0.55;;;0.32;;
78778;SDS011;68121;52.404;5.318;2023-03-05T09:06:51;1.42;;;0.43;;
78778;SDS011;68121;52.404;5.318;2023-03-05T09:09:17;1.17;;;0.40;;
78778;SDS011;68121;52.404;5.318;2023-03-05T09:11:46;2.63;;;0.50;;
78778;SDS011;68121;52.404;5.318;2023-03-05T09:14:12;4.15;;;0.40;;
78778;SDS011;68121;52.404;5.318;2023-03-05T09:16:38;0.73;;;0.32;;
78778;SDS011;68121;52.404;5.318;2023-03-05T09:19:06;1.02;;;0.45;;
78778;SDS011;68121;52.404;5.318;2023-03-05T09:21:37;2.22;;;0.30;;
78778;SDS011;68121;52.404;5.318;2023-03-05T09:24:03;1.60;;;0.45;;
78778;SDS011;68121;52.404;5.318;2023-03-05T09:26:29;1.13;;;0.30;;
78778;SDS011;68121;52.404;5.318;2023-03-05T09:28:56;2.00;;;0.47;;
78778;SDS011;68121;52.404;5.318;2023-03-05T09:31:22;0.82;;;0.25;;
78778;SDS011;68121;52.404;5.318;2023-03-05T09:33:48;2.08;;;0.30;;
78778;SDS011;68121;52.404;5.318;2023-03-05T09:36:21;2.28;;;0.57;;
78778;SDS011;68121;52.404;5.318;2023-03-05T09:38:49;2.47;;;0.40;;
78778;SDS011;68121;52.404;5.318;2023-03-05T09:41:17;2.67;;;0.22;;
78778;SDS011;68121;52.404;5.318;2023-03-05T09:52:35;2.17;;;0.40;;
78778;SDS011;68121;52.404;5.318;2023-03-05T09:55:52;0.95;;;0.30;;
78778;SDS011;68121;52.404;5.318;2023-03-05T09:58:03;1.38;;;0.22;;
78778;SDS011;68121;52.404;5.318;2023-03-05T10:00:53;1.73;;;0.35;;
78778;SDS011;68121;52.404;5.318;2023-03-05T10:03:29;4.20;;;0.93;;
78778;SDS011;68121;52.404;5.318;2023-03-05T10:06:20;1.45;;;0.63;;
78778;SDS011;68121;52.404;5.318;2023-03-05T10:08:50;4.40;;;0.60;;
78778;SDS011;68121;52.404;5.318;2023-03-05T10:11:34;2.88;;;0.63;;
78778;SDS011;68121;52.404;5.318;2023-03-05T10:14:04;1.17;;;0.38;;
78778;SDS011;68121;52.404;5.318;2023-03-05T10:19:24;2.13;;;0.95;;
78778;SDS011;68121;52.404;5.318;2023-03-05T10:25:13;4.22;;;1.30;;
78778;SDS011;68121;52.404;5.318;2023-03-05T10:30:30;4.90;;;0.85;;
78778;SDS011;68121;52.404;5.318;2023-03-05T10:36:07;1.45;;;0.30;;
78778;SDS011;68121;52.404;5.318;2023-03-05T10:39:03;1.23;;;0.40;;
78778;SDS011;68121;52.404;5.318;2023-03-05T10:44:20;2.35;;;0.98;;
78778;SDS011;68121;52.404;5.318;2023-03-05T10:46:57;1.52;;;0.52;;
78778;SDS011;68121;52.404;5.318;2023-03-05T10:49:27;3.70;;;0.70;;
78778;SDS011;68121;52.404;5.318;2023-03-05T10:52:03;1.02;;;0.40;;
78778;SDS011;68121;52.404;5.318;2023-03-05T10:54:34;2.90;;;0.32;;
78778;SDS011;68121;52.404;5.318;2023-03-05T10:59:39;3.45;;;0.45;;
78778;SDS011;68121;52.404;5.318;2023-03-05T11:02:11;2.53;;;0.50;;
78778;SDS011;68121;52.404;5.318;2023-03-05T11:04:37;1.27;;;0.30;;
78778;SDS011;68121;52.404;5.318;2023-03-05T11:07:06;2.58;;;0.55;;
78778;SDS011;68121;52.404;5.318;2023-03-05T11:12:31;1.02;;;0.50;;
78778;SDS011;68121;52.404;5.318;2023-03-05T11:17:35;2.70;;;0.70;;
78778;SDS011;68121;52.404;5.318;2023-03-05T11:23:13;1.88;;;0.70;;
78778;SDS011;68121;52.404;5.318;2023-03-05T11:28:20;5.78;;;0.65;;
78778;SDS011;68121;52.404;5.318;2023-03-05T11:33:34;5.32;;;0.70;;
78778;SDS011;68121;52.404;5.318;2023-03-05T11:36:16;3.13;;;0.38;;
78778;SDS011;68121;52.404;5.318;2023-03-05T11:38:52;3.25;;;0.30;;
78778;SDS011;68121;52.404;5.318;2023-03-05T11:41:26;2.20;;;0.68;;
78778;SDS011;68121;52.404;5.318;2023-03-05T11:43:56;2.40;;;0.43;;
78778;SDS011;68121;52.404;5.318;2023-03-05T11:46:25;1.17;;;0.45;;
78778;SDS011;68121;52.404;5.318;2023-03-05T11:48:52;2.97;;;0.40;;
78778;SDS011;68121;52.404;5.318;2023-03-05T11:51:25;4.45;;;0.73;;
78778;SDS011;68121;52.404;5.318;2023-03-05T11:53:58;1.90;;;0.40;;
78778;SDS011;68121;52.404;5.318;2023-03-05T11:56:35;1.38;;;0.50;;
78778;SDS011;68121;52.404;5.318;2023-03-05T11:59:18;3.50;;;0.60;;
78778;SDS011;68121;52.404;5.318;2023-03-05T12:01:51;3.25;;;0.43;;
78778;SDS011;68121;52.404;5.318;2023-03-05T12:04:18;0.60;;;0.30;;
78778;SDS011;68121;52.404;5.318;2023-03-05T12:06:55;3.85;;;0.32;;
78778;SDS011;68121;52.404;5.318;2023-03-05T12:09:35;2.05;;;0.30;;
78778;SDS011;68121;52.404;5.318;2023-03-05T12:12:17;1.85;;;0.30;;
78778;SDS011;68121;52.404;5.318;2023-03-05T12:17:53;2.03;;;0.30;;
78778;SDS011;68121;52.404;5.318;2023-03-05T12:20:36;2.72;;;0.40;;
78778;SDS011;68121;52.404;5.318;2023-03-05T12:23:10;2.45;;;0.40;;
78778;SDS011;68121;52.404;5.318;2023-03-05T12:25:47;2.50;;;0.35;;
78778;SDS011;68121;52.404;5.318;2023-03-05T12:33:46;3.05;;;0.47;;
78778;SDS011;68121;52.404;5.318;2023-03-05T12:51:49;0.98;;;0.30;;
78778;SDS011;68121;52.404;5.318;2023-03-05T12:54:21;1.63;;;0.28;;
78778;SDS011;68121;52.404;5.318;2023-03-05T12:56:53;1.35;;;0.50;;
78778;SDS011;68121;52.404;5.318;2023-03-05T12:59:22;3.08;;;0.60;;
78778;SDS011;68121;52.404;5.318;2023-03-05T13:01:56;0.77;;;0.30;;
78778;SDS011;68121;52.404;5.318;2023-03-05T13:04:28;0.70;;;0.40;;
78778;SDS011;68121;52.404;5.318;2023-03-05T13:07:00;3.45;;;0.32;;
78778;SDS011;68121;52.404;5.318;2023-03-05T13:09:27;2.10;;;0.28;;
78778;SDS011;68121;52.404;5.318;2023-03-05T13:11:57;2.30;;;0.40;;
78778;SDS011;68121;52.404;5.318;2023-03-05T13:16:53;2.35;;;0.40;;
78778;SDS011;68121;52.404;5.318;2023-03-05T13:19:20;1.70;;;0.20;;
78778;SDS011;68121;52.404;5.318;2023-03-05T13:21:55;2.60;;;0.50;;
78778;SDS011;68121;52.404;5.318;2023-03-05T13:24:23;2.08;;;0.40;;
78778;SDS011;68121;52.404;5.318;2023-03-05T13:26:49;2.60;;;0.40;;
78778;SDS011;68121;52.404;5.318;2023-03-05T13:31:49;1.65;;;0.25;;
78778;SDS011;68121;52.404;5.318;2023-03-05T13:34:22;0.85;;;0.40;;
78778;SDS011;68121;52.404;5.318;2023-03-05T13:36:54;4.88;;;0.55;;
78778;SDS011;68121;52.404;5.318;2023-03-05T13:39:26;1.15;;;0.28;;
78778;SDS011;68121;52.404;5.318;2023-03-05T13:41:56;2.15;;;0.32;;
78778;SDS011;68121;52.404;5.318;2023-03-05T13:44:24;0.70;;;0.35;;
78778;SDS011;68121;52.404;5.318;2023-03-05T13:46:50;3.33;;;0.40;;
78778;SDS011;68121;52.404;5.318;2023-03-05T13:51:49;3.83;;;0.47;;
78778;SDS011;68121;52.404;5.318;2023-03-05T13:54:17;1.95;;;0.38;;
78778;SDS011;68121;52.404;5.318;2023-03-05T13:56:54;2.25;;;0.32;;
78778;SDS011;68121;52.404;5.318;2023-03-05T13:59:26;3.58;;;0.40;;
78778;SDS011;68121;52.404;5.318;2023-03-05T14:01:54;2.67;;;0.40;;
78778;SDS011;68121;52.404;5.318;2023-03-05T14:04:24;2.20;;;0.25;;
78778;SDS011;68121;52.404;5.318;2023-03-05T14:12:05;0.22;;;0.22;;
78778;SDS011;68121;52.404;5.318;2023-03-05T14:14:45;1.58;;;0.30;;
78778;SDS011;68121;52.404;5.318;2023-03-05T14:20:33;1.52;;;0.52;;
78778;SDS011;68121;52.404;5.318;2023-03-05T14:22:55;1.15;;;0.38;;
78778;SDS011;68121;52.404;5.318;2023-03-05T14:25:36;1.30;;;0.40;;
78778;SDS011;68121;52.404;5.318;2023-03-05T14:30:45;1.45;;;0.60;;
78778;SDS011;68121;52.404;5.318;2023-03-05T14:33:13;0.38;;;0.22;;
78778;SDS011;68121;52.404;5.318;2023-03-05T14:38:18;2.22;;;0.70;;
78778;SDS011;68121;52.404;5.318;2023-03-05T14:40:48;2.05;;;0.68;;
78778;SDS011;68121;52.404;5.318;2023-03-05T14:43:14;2.42;;;0.43;;
78778;SDS011;68121;52.404;5.318;2023-03-05T14:45:41;0.77;;;0.40;;
78778;SDS011;68121;52.404;5.318;2023-03-05T14:48:10;2.08;;;0.95;;
78778;SDS011;68121;52.404;5.318;2023-03-05T14:50:42;1.02;;;0.40;;
78778;SDS011;68121;52.404;5.318;2023-03-05T14:53:11;0.80;;;0.30;;
78778;SDS011;68121;52.404;5.318;2023-03-05T14:58:14;1.60;;;0.30;;
78778;SDS011;68121;52.404;5.318;2023-03-05T15:00:43;3.95;;;0.73;;
78778;SDS011;68121;52.404;5.318;2023-03-05T15:03:10;1.40;;;0.40;;
78778;SDS011;68121;52.404;5.318;2023-03-05T15:05:40;3.58;;;0.55;;
78778;SDS011;68121;52.404;5.318;2023-03-05T15:08:14;1.30;;;0.70;;
78778;SDS011;68121;52.404;5.318;2023-03-05T15:10:42;1.50;;;0.57;;
78778;SDS011;68121;52.404;5.318;2023-03-05T15:13:08;4.03;;;0.50;;
78778;SDS011;68121;52.404;5.318;2023-03-05T15:15:37;2.67;;;0.68;;
78778;SDS011;68121;52.404;5.318;2023-03-05T15:18:03;2.28;;;0.40;;
78778;SDS011;68121;52.404;5.318;2023-03-05T15:20:30;0.47;;;0.30;;
78778;SDS011;68121;52.404;5.318;2023-03-05T15:22:57;1.55;;;0.40;;
78778;SDS011;68121;52.404;5.318;2023-03-05T15:25:24;3.88;;;0.75;;
78778;SDS011;68121;52.404;5.318;2023-03-05T15:27:53;8.73;;;2.15;;
78778;SDS011;68121;52.404;5.318;2023-03-05T15:32:54;3.13;;;0.50;;
78778;SDS011;68121;52.404;5.318;2023-03-05T15:35:21;2.92;;;0.60;;
78778;SDS011;68121;52.404;5.318;2023-03-05T15:37:48;3.15;;;0.57;;
78778;SDS011;68121;52.404;5.318;2023-03-05T15:40:14;4.43;;;1.15;;
78778;SDS011;68121;52.404;5.318;2023-03-05T15:42:41;5.63;;;1.45;;
78778;SDS011;68121;52.404;5.318;2023-03-05T15:45:07;2.25;;;0.88;;
78778;SDS011;68121;52.404;5.318;2023-03-05T15:47:33;3.40;;;0.52;;
78778;SDS011;68121;52.404;5.318;2023-03-05T15:50:00;3.67;;;1.10;;
78778;SDS011;68121;52.404;5.318;2023-03-05T15:52:26;4.35;;;0.90;;
78778;SDS011;68121;52.404;5.318;2023-03-05T15:54:52;2.83;;;0.60;;
78778;SDS011;68121;52.404;5.318;2023-03-05T15:57:18;2.47;;;0.70;;
78778;SDS011;68121;52.404;5.318;2023-03-05T15:59:48;1.60;;;0.60;;
78778;SDS011;68121;52.404;5.318;2023-03-05T16:02:14;3.30;;;1.13;;
78778;SDS011;68121;52.404;5.318;2023-03-05T16:04:40;1.30;;;0.50;;
78778;SDS011;68121;52.404;5.318;2023-03-05T16:07:06;2.20;;;0.50;;
78778;SDS011;68121;52.404;5.318;2023-03-05T16:09:34;3.20;;;0.40;;
78778;SDS011;68121;52.404;5.318;2023-03-05T16:12:06;3.55;;;0.28;;
78778;SDS011;68121;52.404;5.318;2023-03-05T16:14:35;2.13;;;0.40;;
78778;SDS011;68121;52.404;5.318;2023-03-05T16:17:03;1.05;;;0.15;;
78778;SDS011;68121;52.404;5.318;2023-03-05T16:19:30;1.85;;;0.60;;
78778;SDS011;68121;52.404;5.318;2023-03-05T16:21:59;6.00;;;1.25;;
78778;SDS011;68121;52.404;5.318;2023-03-05T16:24:25;4.63;;;1.10;;
78778;SDS011;68121;52.404;5.318;2023-03-05T16:26:51;3.33;;;1.23;;